Sunday, September 23, 2018, 12:31 AM EDT
Back to Local

KBUF, Greater Buffalo International Airport

Location: Buffalo, NY, United States Lat: 42.933
Local Time: 12:31 AM EDT ( 4:31 GMT) Lon: -78.733
Time Zone: US/Eastern Elev: 725 ft

Show me the last for .
Show Decoded

2018-09-22 23:54 METAR KBUF 230354Z 12006KT 10SM BKN200 11/08 A3024 RMK AO2 SLP244 T01060078 =
2018-09-22 22:54 METAR KBUF 230254Z COR 10005KT 10SM BKN200 11/08 A3024 RMK AO2 SLP244 T01110078
                 58002 =
2018-09-22 21:54 METAR KBUF 230154Z 07004KT 10SM BKN100 BKN200 11/08 A3025 RMK AO2 SLP246
                 T01110078 =
2018-09-22 20:54 METAR KBUF 230054Z 03003KT 10SM BKN100 BKN200 11/07 A3025 RMK AO2 SLP247
                 T01110072 =
2018-09-22 19:54 METAR KBUF 222354Z 35006KT 10SM BKN070 BKN200 12/08 A3025 RMK AO2 SLP246
                 T01170078 10161 20117 55000 =
2018-09-22 18:54 METAR KBUF 222254Z 34006KT 10SM BKN070 BKN200 13/08 A3024 RMK AO2 SLP243
                 T01280078 =
2018-09-22 17:54 METAR KBUF 222154Z 35005KT 10SM SCT035 BKN070 BKN200 14/08 A3025 RMK AO2 SLP244
                 T01440078 $ =
2018-09-22 16:54 METAR KBUF 222054Z VRB04KT 10SM SCT035 BKN070 BKN200 16/07 A3025 RMK AO2 SLP245
                 T01560072 55007 $ =
2018-09-22 15:54 METAR KBUF 221954Z 33004KT 10SM SCT037 BKN200 16/07 A3025 RMK AO2 SLP243
                 T01560072 $ =
2018-09-22 14:54 METAR KBUF 221854Z 00000KT 10SM SCT034 BKN200 16/07 A3025 RMK AO2 SLP245
                 T01560072 $ =
2018-09-22 13:54 METAR KBUF 221754Z VRB04KT 10SM BKN034 BKN200 14/07 A3027 RMK AO2 SLP252
                 T01440072 10156 20128 58003 $ =
2018-09-22 12:54 METAR KBUF 221654Z 01007KT 10SM BKN030 BKN200 15/07 A3028 RMK AO2 SLP255
                 T01500072 $ =
2018-09-22 12:38 METAR KBUF 221638Z 03007KT 10SM BKN030 BKN200 14/07 A3028 RMK AO2 T01390067 $ =
2018-09-22 11:54 METAR KBUF 221554Z 35008KT 10SM BKN028 13/07 A3030 RMK AO2 SLP260 T01330072 $ =
2018-09-22 10:54 METAR KBUF 221454Z 03008KT 10SM OVC028 14/08 A3028 RMK AO2 SLP254 T01390078
                 53012 $ =
2018-09-22 09:54 METAR KBUF 221354Z 36009KT 10SM BKN026 BKN031 BKN200 13/07 A3027 RMK AO2 SLP249
                 T01280072 $ =
2018-09-22 08:54 METAR KBUF 221254Z 36010KT 10SM BKN034 BKN200 13/07 A3026 RMK AO2 SLP245
                 T01280072 $ =
2018-09-22 08:04 METAR KBUF 221204Z 34009KT 10SM BKN034 13/07 A3025 RMK AO2 T01280072 $ =
2018-09-22 07:54 METAR KBUF 221154Z 35009KT 10SM BKN029 BKN034 13/08 A3025 RMK AO2 SLP241 70011
                 T01280078 10150 20128 51029 $ =
2018-09-22 07:23 METAR KBUF 221123Z 34009KT 10SM BKN029 BKN034 13/08 A3023 RMK AO2 T01280083 $ =
2018-09-22 06:54 METAR KBUF 221054Z 33005KT 10SM BKN032 BKN040 13/08 A3022 RMK AO2 SLP232
                 T01280078 $ =
2018-09-22 05:54 METAR KBUF 220954Z 31008KT 10SM BKN033 13/08 A3019 RMK AO2 SLP220 T01330078 $ =
2018-09-22 04:54 METAR KBUF 220854Z 30007KT 10SM BKN034 13/07 A3016 RMK AO2 SLP210 T01280072
                 51029 $ =
2018-09-22 03:54 METAR KBUF 220754Z 30009KT 10SM BKN033 13/07 A3014 RMK AO2 SLP202 T01330072 $ =
2018-09-22 02:54 METAR KBUF 220654Z 29013G19KT 10SM BKN034 14/08 A3011 RMK AO2 SLP193 T01390078 $
                 =
2018-09-22 01:54 METAR KBUF 220554Z COR 30019G26KT 10SM FEW035 FEW250 15/08 A3007 RMK AO2 PK WND
                 30029/0543 PRESRR SLP179 T01500083 10239 20150 53042 $ =
2018-09-22 00:54 METAR KBUF 220454Z 31025G31KT 10SM SCT037 SCT240 17/09 A3002 RMK AO2 PK WND
                 31031/0453 SLP160 T01720094 403170172 $ =

Support USWX by starting your Amazon purchase here.